Time;durP1;ratioP1;P1;durP2;ratioP2;P2;SDS_P1;SDS_P2;PMS_P1;PMS_P2;Temp;Humidity;BMP_temperature;BMP_pressure;BME280_temperature;BME280_humidity;BME280_pressure;Samples;Min_cycle;Max_cycle;Signal;HPM_P1;HPM_P2
2021/12/09 00:00:06;;;;;;;65.65;38.05;;;;;;;7.60;62.70;99998.69;4784870;29;121685;-80
2021/12/09 00:02:38;;;;;;;65.90;39.22;;;;;;;7.63;62.76;99997.03;4806922;29;120021;-78
2021/12/09 00:05:05;;;;;;;61.50;37.35;;;;;;;7.63;62.38;100002.50;4809319;29;122294;-79
2021/12/09 00:07:30;;;;;;;67.13;39.38;;;;;;;7.62;62.70;100000.97;4796881;29;120001;-78
2021/12/09 00:09:56;;;;;;;64.65;38.83;;;;;;;7.64;62.26;100009.47;4809637;29;124387;-78
2021/12/09 00:12:23;;;;;;;64.38;38.10;;;;;;;7.51;62.31;99990.44;4814049;29;120452;-79
2021/12/09 00:14:51;;;;;;;62.22;37.88;;;;;;;7.59;62.52;100002.63;4813652;29;123689;-77
2021/12/09 00:17:17;;;;;;;63.17;38.70;;;;;;;7.57;62.43;99999.59;4807196;29;120893;-78
2021/12/09 00:19:42;;;;;;;64.57;39.05;;;;;;;7.55;61.99;100006.69;4814538;29;120160;-78
2021/12/09 00:22:11;;;;;;;63.88;37.85;;;;;;;7.53;63.06;100015.31;4818292;29;122795;-77
2021/12/09 00:24:37;;;;;;;67.40;39.17;;;;;;;7.43;62.42;100002.81;4784068;29;121663;-77
2021/12/09 00:27:04;;;;;;;63.30;38.65;;;;;;;7.48;62.67;100012.41;4814113;29;120097;-79
2021/12/09 00:29:30;;;;;;;60.90;38.85;;;;;;;7.51;62.57;100011.50;4812930;29;119782;-79
2021/12/09 00:31:56;;;;;;;66.57;39.60;;;;;;;7.44;62.53;100001.63;4809880;29;119375;-79
2021/12/09 00:34:31;;;;;;;67.25;39.60;;;;;;;7.51;62.37;100014.25;4812811;29;120439;-78
2021/12/09 00:37:15;;;;;;;67.63;40.00;;;;;;;7.49;62.88;100009.22;4799381;29;120031;-79
2021/12/09 00:39:41;;;;;;;68.45;40.13;;;;;;;7.49;62.35;100016.66;4813900;29;122115;-78
2021/12/09 00:42:09;;;;;;;65.53;40.60;;;;;;;7.49;62.86;100011.19;4825511;28;122902;-78
2021/12/09 00:44:35;;;;;;;68.55;41.13;;;;;;;7.46;62.95;99984.81;4818554;29;119804;-80
2021/12/09 00:47:01;;;;;;;68.65;41.08;;;;;;;7.52;62.25;99999.38;4811653;29;120388;-78
2021/12/09 00:49:30;;;;;;;69.00;41.20;;;;;;;7.51;62.50;99992.41;4812825;29;119900;-78
2021/12/09 00:51:56;;;;;;;65.40;41.47;;;;;;;7.46;62.18;100009.38;4810214;29;120055;-78
2021/12/09 00:54:22;;;;;;;72.40;42.50;;;;;;;7.40;62.40;100001.00;4811580;29;122712;-78
2021/12/09 00:56:48;;;;;;;72.93;41.70;;;;;;;7.35;62.67;100004.31;4796839;29;119840;-77
2021/12/09 00:59:13;;;;;;;70.43;42.83;;;;;;;7.27;62.50;100008.47;4813518;29;121105;-78
2021/12/09 01:01:39;;;;;;;74.05;42.58;;;;;;;7.32;62.59;100019.56;4793844;29;122603;-80
2021/12/09 01:04:07;;;;;;;74.95;43.05;;;;;;;7.30;63.10;100024.69;4828318;28;119619;-78
2021/12/09 01:06:33;;;;;;;71.55;42.15;;;;;;;7.23;62.59;100013.28;4800841;29;121611;-76
2021/12/09 01:08:58;;;;;;;72.88;44.35;;;;;;;7.25;62.59;100021.78;4814058;29;119818;-78
2021/12/09 01:11:24;;;;;;;72.63;43.53;;;;;;;7.20;62.53;100025.84;4825893;28;121708;-77
2021/12/09 01:13:50;;;;;;;76.45;44.70;;;;;;;7.15;62.65;100017.47;4808644;29;123636;-80
2021/12/09 01:16:15;;;;;;;76.22;44.50;;;;;;;7.05;62.76;100008.44;4813540;29;120501;-79
2021/12/09 01:18:41;;;;;;;74.00;44.22;;;;;;;7.11;62.83;100012.16;4812757;29;122357;-77
2021/12/09 01:21:08;;;;;;;80.20;45.15;;;;;;;7.08;63.19;100021.19;4806827;29;123600;-80
2021/12/09 01:23:37;;;;;;;78.25;45.10;;;;;;;7.06;63.15;100027.09;4797447;29;119681;-79
2021/12/09 01:26:05;;;;;;;74.90;43.83;;;;;;;7.01;63.77;100019.47;4800511;29;123219;-79
2021/12/09 01:28:48;;;;;;;75.53;43.75;;;;;;;7.10;62.73;100027.00;4813593;29;119598;-77
2021/12/09 01:31:22;;;;;;;76.47;44.53;;;;;;;7.10;62.75;100027.00;4811493;29;121692;-78
2021/12/09 01:33:59;;;;;;;78.18;45.47;;;;;;;7.07;62.78;100036.03;4810481;29;120368;-79
2021/12/09 01:36:25;;;;;;;78.55;45.03;;;;;;;7.08;63.03;100029.38;4812142;29;120277;-79
2021/12/09 01:38:50;;;;;;;77.63;44.53;;;;;;;7.10;62.99;100027.00;4810331;29;121852;-79
2021/12/09 01:41:16;;;;;;;73.75;44.08;;;;;;;7.13;63.38;100025.34;4806032;29;119818;-79
2021/12/09 01:43:42;;;;;;;73.75;44.20;;;;;;;7.12;63.01;100026.53;4796992;29;120111;-77
2021/12/09 01:46:10;;;;;;;73.70;44.83;;;;;;;7.08;62.75;100029.38;4787048;29;122325;-77
2021/12/09 01:48:37;;;;;;;74.63;42.28;;;;;;;7.02;62.58;100022.97;4824374;28;121846;-78
2021/12/09 01:51:03;;;;;;;74.50;43.92;;;;;;;7.06;62.84;100023.59;4813036;29;121893;-79
2021/12/09 01:53:29;;;;;;;71.18;43.33;;;;;;;7.06;62.61;100013.44;4811992;29;119796;-77
2021/12/09 01:55:58;;;;;;;72.25;42.83;;;;;;;7.12;62.43;100024.59;4796540;29;119884;-80
2021/12/09 01:58:24;;;;;;;77.93;44.67;;;;;;;7.05;63.23;100003.00;4811320;29;119989;-75
2021/12/09 02:00:50;;;;;;;69.40;43.00;;;;;;;7.05;62.80;100003.00;4795460;29;122359;-79
2021/12/09 02:03:15;;;;;;;73.95;43.63;;;;;;;7.13;63.21;100019.88;4801610;29;121781;-80
2021/12/09 02:05:43;;;;;;;74.03;43.50;;;;;;;7.06;62.67;100004.50;4797186;29;122050;-81
2021/12/09 02:08:14;;;;;;;75.70;42.53;;;;;;;7.15;63.06;100017.47;4793657;29;123621;-80
2021/12/09 02:10:41;;;;;;;72.10;42.83;;;;;;;7.13;62.57;100026.09;4815410;29;119960;-78
2021/12/09 02:13:13;;;;;;;72.78;41.85;;;;;;;7.14;62.38;100022.16;4811880;29;119844;-79
2021/12/09 02:15:40;;;;;;;75.10;44.03;;;;;;;7.15;62.91;100026.41;4792354;29;119930;-80
2021/12/09 02:18:08;;;;;;;73.88;43.58;;;;;;;7.14;62.78;100026.88;4811157;29;121886;-79
2021/12/09 02:20:37;;;;;;;72.78;43.13;;;;;;;7.09;62.83;100019.97;4810919;29;120765;-80
2021/12/09 02:23:08;;;;;;;72.78;43.03;;;;;;;7.11;62.94;100025.78;4781915;29;119994;-80
2021/12/09 02:25:39;;;;;;;73.95;43.95;;;;;;;7.14;62.77;100026.88;4809318;29;121813;-80
2021/12/09 02:28:09;;;;;;;83.00;44.85;;;;;;;7.09;62.99;100019.97;4806960;29;121703;-79
2021/12/09 02:30:40;;;;;;;71.55;42.70;;;;;;;7.12;62.75;100018.38;4796471;29;120726;-80
2021/12/09 02:33:06;;;;;;;74.22;44.35;;;;;;;7.01;63.37;100007.81;4813948;29;119823;-84
2021/12/09 02:35:32;;;;;;;73.82;45.00;;;;;;;7.15;62.76;100033.84;4805580;29;121264;-82
2021/12/09 02:37:57;;;;;;;77.47;46.13;;;;;;;7.07;62.92;100016.94;4812507;29;119637;-83
2021/12/09 02:40:33;;;;;;;79.10;45.35;;;;;;;7.11;62.84;100022.28;4810853;29;119760;-84
2021/12/09 02:43:00;;;;;;;75.85;45.70;;;;;;;7.14;62.89;100022.16;4810191;29;120154;-84
2021/12/09 02:45:26;;;;;;;76.18;45.08;;;;;;;7.20;62.91;100042.22;4806710;29;121910;-85
2021/12/09 02:47:51;;;;;;;78.10;46.05;;;;;;;7.15;62.52;100028.38;4809300;29;119902;-84
2021/12/09 02:50:17;;;;;;;75.13;44.90;;;;;;;7.09;62.62;100033.63;4781347;29;120041;-85
2021/12/09 02:52:47;;;;;;;78.40;44.97;;;;;;;7.08;62.60;100032.09;4812908;29;119918;-82
2021/12/09 02:55:13;;;;;;;71.40;44.22;;;;;;;7.08;62.73;100029.38;4815031;29;120257;-83
2021/12/09 02:57:39;;;;;;;77.35;46.25;;;;;;;7.03;62.82;100013.56;4795082;29;122211;-81
2021/12/09 03:00:07;;;;;;;77.35;46.22;;;;;;;7.09;62.78;100022.72;4794740;29;122757;-86
2021/12/09 03:02:33;;;;;;;74.65;45.05;;;;;;;7.13;63.16;100033.53;4810127;29;119898;-81
2021/12/09 03:05:02;;;;;;;80.53;46.70;;;;;;;7.15;62.72;100022.94;4807878;29;119448;-85
2021/12/09 03:07:33;;;;;;;82.10;47.00;;;;;;;7.18;62.91;100027.50;4792033;29;121239;-83
2021/12/09 03:10:23;;;;;;;79.88;46.92;;;;;;;7.20;63.01;100025.09;4793480;29;119613;-80
2021/12/09 03:12:52;;;;;;;78.80;46.15;;;;;;;7.20;62.82;100020.41;4778609;29;121397;-83
2021/12/09 03:15:20;;;;;;;76.43;46.97;;;;;;;7.18;62.96;100011.91;4807869;29;121444;-81
2021/12/09 03:17:47;;;;;;;79.80;47.13;;;;;;;7.13;62.64;100011.69;4796171;29;123905;-82
2021/12/09 03:20:14;;;;;;;77.15;46.92;;;;;;;7.13;62.80;100015.19;4793710;29;122704;-82
2021/12/09 03:22:44;;;;;;;76.97;47.13;;;;;;;7.19;62.14;100012.66;4797534;29;119494;-83
2021/12/09 03:25:11;;;;;;;79.57;46.80;;;;;;;7.17;62.79;100009.63;4776403;29;122311;-84
2021/12/09 03:27:38;;;;;;;77.50;45.83;;;;;;;7.03;62.19;99999.94;4811245;29;122636;-82
2021/12/09 03:30:11;;;;;;;78.25;45.72;;;;;;;7.06;62.83;100007.25;4809546;29;119860;-81
2021/12/09 03:32:36;;;;;;;83.13;47.40;;;;;;;6.92;62.54;99996.84;4808311;29;121990;-83
2021/12/09 03:35:02;;;;;;;80.28;46.60;;;;;;;6.97;62.67;100012.63;4808962;29;122715;-84
2021/12/09 03:37:28;;;;;;;83.30;46.05;;;;;;;6.96;62.47;100017.31;4811828;29;119578;-82
2021/12/09 03:39:57;;;;;;;79.75;46.92;;;;;;;6.94;62.97;100010.78;4791709;29;123815;-81
2021/12/09 03:42:27;;;;;;;77.13;46.05;;;;;;;7.03;62.78;100029.94;4807372;29;121409;-88
2021/12/09 03:44:54;;;;;;;77.43;46.28;;;;;;;6.97;62.53;100028.97;4807869;29;120131;-83
2021/12/09 03:47:26;;;;;;;81.70;46.65;;;;;;;7.01;62.96;100032.34;4783080;29;123931;-81
2021/12/09 03:49:52;;;;;;;84.57;47.80;;;;;;;6.70;63.09;99994.81;4812953;29;122918;-86
2021/12/09 03:52:18;;;;;;;81.97;47.30;;;;;;;7.01;63.22;100040.53;4814697;29;121880;-84
2021/12/09 03:54:45;;;;;;;82.45;47.15;;;;;;;6.86;62.79;100028.56;4783883;29;122579;-86
2021/12/09 03:57:12;;;;;;;80.25;48.35;;;;;;;7.02;62.80;100039.31;4813595;29;119981;-83
2021/12/09 03:59:39;;;;;;;87.22;49.22;;;;;;;6.97;63.07;100035.19;4812976;29;119640;-84
2021/12/09 04:02:06;;;;;;;84.60;47.53;;;;;;;7.00;62.87;100044.47;4807065;29;123157;-83
2021/12/09 04:04:32;;;;;;;83.13;47.70;;;;;;;6.97;63.12;100042.63;4812677;29;122086;-82
2021/12/09 04:06:57;;;;;;;85.45;48.13;;;;;;;6.91;62.94;100036.19;4807759;29;122558;-84
2021/12/09 04:09:25;;;;;;;84.40;48.85;;;;;;;6.95;63.37;100045.03;4812588;29;120425;-85
2021/12/09 04:11:52;;;;;;;82.13;47.95;;;;;;;6.94;62.67;100036.09;4789850;29;119797;-82
2021/12/09 04:14:19;;;;;;;83.00;48.17;;;;;;;7.00;62.83;100039.75;4790050;29;122786;-83
2021/12/09 04:16:45;;;;;;;88.90;49.70;;;;;;;6.92;62.90;100027.59;4822953;28;120134;-84
2021/12/09 04:19:11;;;;;;;90.05;48.72;;;;;;;6.97;63.02;100031.72;4809605;29;120015;-85
2021/12/09 04:21:38;;;;;;;88.03;50.33;;;;;;;6.98;63.28;100050.34;4813519;29;121969;-84
2021/12/09 04:24:07;;;;;;;86.53;48.40;;;;;;;6.95;63.34;100034.88;4812554;29;119813;-84
2021/12/09 04:26:35;;;;;;;91.75;50.63;;;;;;;6.89;62.85;100036.66;4816438;29;122671;-83
2021/12/09 04:29:05;;;;;;;88.13;49.10;;;;;;;6.96;62.77;100050.03;4825852;28;119794;-85
2021/12/09 04:31:31;;;;;;;88.18;50.75;;;;;;;6.88;62.97;100039.81;4811786;29;121047;-83
2021/12/09 04:33:57;;;;;;;90.18;51.25;;;;;;;6.96;63.36;100030.19;4799296;29;120658;-84
2021/12/09 04:36:23;;;;;;;92.82;52.30;;;;;;;6.95;63.16;100036.84;4799229;29;119596;-82
2021/12/09 04:38:49;;;;;;;92.75;51.50;;;;;;;6.96;63.20;100043.81;4813299;29;122203;-83
2021/12/09 04:41:16;;;;;;;86.20;48.75;;;;;;;7.03;62.69;100057.97;4793424;29;122579;-82
2021/12/09 04:43:43;;;;;;;91.30;51.28;;;;;;;7.05;62.65;100062.97;4816026;29;119617;-82
2021/12/09 04:46:13;;;;;;;94.22;52.13;;;;;;;7.00;62.68;100047.19;4780970;29;122856;-80
2021/12/09 04:48:39;;;;;;;90.60;51.10;;;;;;;6.99;62.99;100064.75;4792969;29;120225;-82
2021/12/09 04:51:05;;;;;;;90.28;50.20;;;;;;;6.96;62.86;100057.44;4811543;29;119701;-85
2021/12/09 04:53:31;;;;;;;95.78;52.63;;;;;;;6.97;62.35;100067.16;4782389;29;122264;-83
2021/12/09 04:55:57;;;;;;;92.97;52.08;;;;;;;6.94;62.36;100065.31;4795456;29;120982;-83
2021/12/09 04:58:23;;;;;;;89.93;50.47;;;;;;;6.92;62.77;100065.75;4797375;29;120687;-86
2021/12/09 05:00:50;;;;;;;92.75;52.08;;;;;;;6.96;63.08;100071.09;4795674;29;122837;-84
2021/12/09 05:03:16;;;;;;;96.95;51.70;;;;;;;6.84;62.81;100053.53;4810982;29;120414;-87
2021/12/09 05:05:49;;;;;;;93.05;52.35;;;;;;;6.98;62.52;100074.13;4784801;29;122009;-85
2021/12/09 05:08:17;;;;;;;93.60;52.78;;;;;;;7.04;62.90;100083.28;4812343;29;121799;-83
2021/12/09 05:13:18;;;;;;;94.43;52.75;;;;;;;6.99;62.96;100059.28;4809004;29;123053;-85
2021/12/09 05:15:45;;;;;;;91.20;51.28;;;;;;;7.12;62.82;100075.63;4813279;29;120763;-84
2021/12/09 05:18:11;;;;;;;90.97;51.40;;;;;;;6.97;62.91;100040.66;4799770;29;121607;-82
2021/12/09 05:20:36;;;;;;;90.82;51.13;;;;;;;7.15;62.80;100072.78;4811048;29;120114;-80
2021/12/09 05:23:03;;;;;;;95.47;53.45;;;;;;;7.09;62.16;100071.78;4812524;29;119858;-82
2021/12/09 05:25:29;;;;;;;91.68;51.28;;;;;;;7.10;62.64;100081.53;4810309;29;119686;-82
2021/12/09 05:27:55;;;;;;;95.05;53.17;;;;;;;7.05;62.30;100074.66;4810931;29;120019;-77
2021/12/09 05:30:27;;;;;;;95.45;51.95;;;;;;;7.03;62.45;100071.59;4780030;29;122382;-77
2021/12/09 05:32:53;;;;;;;99.32;52.85;;;;;;;7.09;62.58;100080.75;4810691;29;119878;-84
2021/12/09 05:35:19;;;;;;;108.13;55.42;;;;;;;7.09;62.49;100075.28;4795656;29;120268;-82
2021/12/09 05:37:48;;;;;;;102.35;51.85;;;;;;;7.11;62.37;100055.03;4794083;29;122218;-82
2021/12/09 05:40:15;;;;;;;96.35;52.40;;;;;;;7.02;62.59;100050.22;4810506;29;121774;-78
2021/12/09 05:42:42;;;;;;;103.63;54.45;;;;;;;7.11;62.75;100055.78;4779773;29;120100;-82
2021/12/09 05:45:08;;;;;;;97.15;53.58;;;;;;;7.14;62.69;100054.91;4795723;29;123473;-81
2021/12/09 05:47:34;;;;;;;96.65;53.35;;;;;;;7.12;62.58;100051.09;4799612;29;121615;-80
2021/12/09 05:50:02;;;;;;;99.03;52.40;;;;;;;7.17;62.08;100062.19;4809446;29;120473;-84
2021/12/09 05:52:28;;;;;;;96.72;52.97;;;;;;;7.15;62.14;100050.22;4809742;29;121516;-78
2021/12/09 05:54:53;;;;;;;97.18;53.10;;;;;;;7.18;62.40;100058.25;4810883;29;120363;-81
2021/12/09 05:57:19;;;;;;;101.57;53.95;;;;;;;7.15;62.51;100061.88;4810584;29;121662;-82
2021/12/09 05:59:44;;;;;;;101.13;53.47;;;;;;;7.16;62.25;100063.41;4779332;29;123248;-81
2021/12/09 06:02:13;;;;;;;102.60;56.25;;;;;;;7.23;62.47;100068.59;4812023;29;119877;-80
2021/12/09 06:04:40;;;;;;;100.88;54.95;;;;;;;7.26;62.54;100086.06;4795161;29;122562;-79
2021/12/09 06:07:08;;;;;;;104.53;54.50;;;;;;;7.24;62.39;100085.72;4810562;29;122230;-81
2021/12/09 06:09:34;;;;;;;103.22;53.92;;;;;;;7.20;62.47;100069.50;4813739;29;119830;-81
2021/12/09 06:12:05;;;;;;;101.85;53.42;;;;;;;7.18;62.56;100055.53;4809278;29;120058;-81
2021/12/09 06:14:34;;;;;;;99.50;53.97;;;;;;;7.28;62.04;100078.19;4779232;29;120072;-82
2021/12/09 06:17:00;;;;;;;97.35;52.90;;;;;;;7.28;62.38;100087.13;4810981;29;122238;-80
2021/12/09 06:19:25;;;;;;;102.45;54.38;;;;;;;7.20;62.32;100080.41;4779461;29;122510;-80
2021/12/09 06:21:52;;;;;;;98.68;54.03;;;;;;;7.21;62.13;100075.69;4823119;28;121200;-83
2021/12/09 06:24:21;;;;;;;103.07;55.13;;;;;;;7.17;62.36;100069.63;4809871;29;121169;-81
2021/12/09 06:26:50;;;;;;;99.07;52.78;;;;;;;7.04;62.28;100064.94;4810538;29;119747;-81
2021/12/09 06:29:18;;;;;;;101.90;53.38;;;;;;;7.04;62.36;100056.00;4806795;29;120191;-81
2021/12/09 06:31:44;;;;;;;98.38;52.78;;;;;;;7.10;62.23;100081.53;4828422;28;123168;-80
2021/12/09 06:34:12;;;;;;;94.75;51.33;;;;;;;7.14;62.16;100082.16;4808487;29;119904;-81
2021/12/09 06:36:42;;;;;;;101.68;55.05;;;;;;;7.13;62.41;100083.38;4793782;29;122242;-81
2021/12/09 06:39:09;;;;;;;103.45;53.83;;;;;;;7.12;62.30;100094.72;4809330;29;125009;-83
2021/12/09 06:41:34;;;;;;;100.38;55.30;;;;;;;7.07;62.35;100094.06;4809219;29;121684;-80
2021/12/09 06:44:02;;;;;;;100.07;53.50;;;;;;;7.13;62.27;100098.97;4779423;29;121626;-82
2021/12/09 06:46:27;;;;;;;107.00;54.67;;;;;;;7.03;62.34;100081.75;4794101;29;120736;-80
2021/12/09 06:48:53;;;;;;;103.97;53.60;;;;;;;7.16;62.22;100087.19;4779387;29;120071;-81
2021/12/09 06:51:19;;;;;;;105.22;55.40;;;;;;;7.13;62.18;100082.63;4808518;29;121969;-81
2021/12/09 06:53:45;;;;;;;99.78;54.70;;;;;;;7.19;62.36;100094.47;4813551;29;122424;-81
2021/12/09 06:56:10;;;;;;;107.38;55.45;;;;;;;7.24;62.33;100110.28;4793352;29;120615;-83
2021/12/09 06:58:36;;;;;;;105.10;55.60;;;;;;;7.23;62.31;100101.34;4820789;28;123225;-83
2021/12/09 07:01:04;;;;;;;98.53;53.53;;;;;;;7.22;62.07;100102.53;4793130;29;119459;-82
2021/12/09 07:03:30;;;;;;;100.40;54.15;;;;;;;7.21;62.13;100109.19;4791166;29;121154;-82
2021/12/09 07:05:57;;;;;;;103.43;54.78;;;;;;;7.27;62.08;100115.63;4776687;29;123009;-82
2021/12/09 07:08:23;;;;;;;107.13;55.97;;;;;;;7.18;62.19;100104.63;4807418;29;120219;-82
2021/12/09 07:10:50;;;;;;;98.60;53.53;;;;;;;7.28;62.12;100125.31;4776842;29;122367;-80
2021/12/09 07:13:16;;;;;;;98.47;53.15;;;;;;;7.24;61.47;100108.31;4806922;29;123009;-83
2021/12/09 07:15:41;;;;;;;96.05;52.67;;;;;;;7.27;61.59;100125.75;4796534;29;120095;-84
2021/12/09 07:18:07;;;;;;;96.13;52.60;;;;;;;7.21;62.00;100117.38;4805149;29;120368;-84
2021/12/09 07:20:33;;;;;;;100.32;53.33;;;;;;;7.26;61.52;100125.00;4820725;28;119826;-82
2021/12/09 07:22:59;;;;;;;101.22;54.58;;;;;;;7.23;61.21;100128.63;4791912;29;121836;-82
2021/12/09 07:25:28;;;;;;;97.55;53.08;;;;;;;7.22;61.21;100129.06;4823955;28;122858;-83
2021/12/09 07:27:54;;;;;;;101.78;54.47;;;;;;;7.21;61.63;100130.25;4808134;29;119916;-83
2021/12/09 07:30:22;;;;;;;93.53;52.92;;;;;;;7.13;61.89;100112.63;4776542;29;121685;-82
2021/12/09 07:32:48;;;;;;;99.05;53.88;;;;;;;7.17;61.38;100127.66;4809062;29;120168;-84
2021/12/09 07:35:15;;;;;;;98.63;53.65;;;;;;;7.11;61.69;100121.22;4797388;29;119549;-83
2021/12/09 07:37:41;;;;;;;102.57;55.05;;;;;;;7.15;61.98;100121.13;4792992;29;122821;-82
2021/12/09 07:40:11;;;;;;;97.03;53.58;;;;;;;7.26;62.25;100132.41;4794202;29;121477;-82
2021/12/09 07:42:38;;;;;;;100.68;53.72;;;;;;;7.28;61.60;100133.50;4808325;29;119565;-84
2021/12/09 07:45:09;;;;;;;97.63;52.72;;;;;;;7.22;61.80;100123.59;4806545;29;120560;-82
2021/12/09 07:47:38;;;;;;;98.70;54.10;;;;;;;7.27;61.77;100129.25;4807914;29;121882;-83
2021/12/09 07:50:07;;;;;;;100.68;55.05;;;;;;;7.22;61.57;100127.09;4779136;29;121804;-81
2021/12/09 07:52:33;;;;;;;102.97;55.15;;;;;;;7.18;61.94;100123.72;4789733;29;122515;-84
2021/12/09 07:54:59;;;;;;;101.93;54.70;;;;;;;7.19;61.45;100130.69;4809359;29;120047;-82
2021/12/09 07:57:25;;;;;;;100.63;55.45;;;;;;;7.16;61.62;100115.22;4781171;29;121779;-84
2021/12/09 07:59:50;;;;;;;94.45;54.00;;;;;;;7.09;61.71;100118.91;4778019;29;119634;-84
2021/12/09 08:02:16;;;;;;;104.07;54.50;;;;;;;7.16;61.31;100133.53;4792086;29;122324;-82
2021/12/09 08:04:42;;;;;;;101.65;55.60;;;;;;;7.05;61.76;100120.25;4810431;29;120390;-80
2021/12/09 08:07:10;;;;;;;103.30;56.17;;;;;;;7.09;62.07;100138.00;4805460;29;120110;-84
2021/12/09 08:09:36;;;;;;;100.35;55.50;;;;;;;7.07;62.26;100136.94;4809739;29;121636;-83
2021/12/09 08:12:02;;;;;;;103.85;55.55;;;;;;;7.02;62.28;100132.78;4822691;28;122378;-83
2021/12/09 08:14:27;;;;;;;104.57;55.90;;;;;;;7.09;61.98;100139.97;4807234;29;120356;-85
2021/12/09 08:17:23;;;;;;;107.93;54.30;;;;;;;7.03;62.09;100133.56;4794257;29;121684;-84
2021/12/09 08:19:50;;;;;;;106.97;56.25;;;;;;;6.96;61.97;100128.34;4814571;29;120332;-83
2021/12/09 08:22:15;;;;;;;99.13;53.40;;;;;;;7.09;62.08;100139.97;4792467;29;121172;-83
2021/12/09 08:24:47;;;;;;;108.45;56.88;;;;;;;7.08;62.65;100139.22;4808259;29;120291;-83
2021/12/09 08:27:12;;;;;;;109.95;56.22;;;;;;;7.15;62.35;100140.97;4824160;28;119944;-81
2021/12/09 08:29:38;;;;;;;105.10;55.67;;;;;;;7.10;62.34;100141.53;4805797;29;119462;-82
2021/12/09 08:32:10;;;;;;;102.07;55.67;;;;;;;7.18;62.42;100152.97;4808854;29;120226;-82
2021/12/09 08:34:38;;;;;;;101.13;54.53;;;;;;;7.15;61.77;100154.59;4811478;29;119492;-82
2021/12/09 08:37:04;;;;;;;107.68;56.10;;;;;;;7.12;61.80;100155.50;4795094;29;121418;-84
2021/12/09 08:39:29;;;;;;;101.68;56.35;;;;;;;7.18;61.79;100164.63;4809724;29;119879;-81
2021/12/09 08:41:55;;;;;;;103.50;56.28;;;;;;;7.18;62.28;100161.16;4800420;29;120533;-83
2021/12/09 08:44:21;;;;;;;107.97;58.17;;;;;;;7.11;62.52;100145.78;4808704;29;121267;-83
2021/12/09 08:46:46;;;;;;;104.95;55.28;;;;;;;7.08;62.23;100136.50;4809962;29;120241;-81
2021/12/09 08:49:12;;;;;;;101.25;54.88;;;;;;;7.16;61.90;100152.63;4808479;29;121495;-80
2021/12/09 08:51:38;;;;;;;101.43;56.20;;;;;;;7.15;61.84;100149.16;4806213;29;120496;-80
2021/12/09 08:54:05;;;;;;;97.30;54.80;;;;;;;7.15;61.96;100151.88;4807443;29;119525;-79
2021/12/09 08:56:34;;;;;;;100.80;55.28;;;;;;;7.15;61.88;100153.84;4824443;28;122121;-78
2021/12/09 08:59:02;;;;;;;104.70;56.15;;;;;;;7.12;62.10;100155.50;4804952;29;123057;-79
2021/12/09 09:01:28;;;;;;;98.95;54.67;;;;;;;7.06;61.90;100146.31;4807700;29;121636;-80
2021/12/09 09:03:53;;;;;;;104.00;56.47;;;;;;;7.10;62.09;100152.44;4811746;29;122198;-80
2021/12/09 09:06:19;;;;;;;96.25;54.47;;;;;;;7.07;61.92;100148.59;4791905;29;120659;-80
2021/12/09 09:08:46;;;;;;;95.72;55.78;;;;;;;7.11;62.03;100151.25;4775849;29;119945;-80
2021/12/09 09:11:12;;;;;;;96.25;54.47;;;;;;;7.14;61.93;100153.06;4776751;29;123215;-80
2021/12/09 09:13:37;;;;;;;98.25;55.65;;;;;;;7.14;62.08;100141.41;4789371;29;120324;-80
2021/12/09 09:16:03;;;;;;;98.15;54.22;;;;;;;7.16;61.91;100142.50;4776753;29;121793;-79
2021/12/09 09:18:29;;;;;;;100.90;57.05;;;;;;;7.16;62.01;100128.09;4790453;29;120806;-80
2021/12/09 09:20:54;;;;;;;100.00;54.70;;;;;;;7.26;61.83;100140.59;4791008;29;120682;-80
2021/12/09 09:23:22;;;;;;;98.20;55.25;;;;;;;7.27;61.78;100145.63;4792366;29;121518;-80
2021/12/09 09:25:48;;;;;;;103.55;56.72;;;;;;;7.19;61.92;100133.44;4779862;29;122884;-81
2021/12/09 09:28:15;;;;;;;101.88;55.75;;;;;;;7.28;61.85;100146.38;4784755;29;121730;-81
2021/12/09 09:30:48;;;;;;;101.72;55.90;;;;;;;7.22;60.97;100142.69;4806497;29;119831;-81
2021/12/09 09:33:15;;;;;;;98.40;54.78;;;;;;;7.24;61.52;100151.97;4776101;29;123010;-79
2021/12/09 09:35:42;;;;;;;97.95;55.40;;;;;;;7.21;61.81;100147.38;4792075;29;121575;-79
2021/12/09 09:38:09;;;;;;;96.28;54.17;;;;;;;7.27;61.36;100156.53;4789589;29;123115;-79
2021/12/09 09:40:47;;;;;;;96.13;55.53;;;;;;;7.28;61.32;100151.84;4787995;29;120186;-80
2021/12/09 09:43:25;;;;;;;95.43;54.53;;;;;;;7.24;61.98;100132.88;4785708;29;124267;-80
2021/12/09 09:45:53;;;;;;;95.00;53.25;;;;;;;7.30;61.34;100135.78;4793896;29;123642;-81
2021/12/09 09:48:21;;;;;;;102.97;56.42;;;;;;;7.31;61.65;100140.03;4805079;29;122969;-81
2021/12/09 09:50:49;;;;;;;95.72;54.28;;;;;;;7.27;61.43;100123.78;4788482;29;123396;-80
2021/12/09 09:53:15;;;;;;;97.65;54.78;;;;;;;7.34;61.52;100129.03;4791708;29;121605;-79
2021/12/09 09:55:44;;;;;;;99.88;55.92;;;;;;;7.37;61.53;100122.69;4785177;29;120546;-81
2021/12/09 09:58:09;;;;;;;103.63;56.45;;;;;;;7.38;62.20;100110.56;4787400;29;122979;-81
2021/12/09 10:00:35;;;;;;;104.50;55.85;;;;;;;7.46;62.15;100119.28;4802598;29;119794;-80
2021/12/09 10:03:03;;;;;;;103.53;56.47;;;;;;;7.53;62.04;100126.44;4803568;29;120202;-81
2021/12/09 10:05:36;;;;;;;103.95;57.05;;;;;;;7.43;61.58;100106.50;4803936;29;122880;-80
2021/12/09 10:08:03;;;;;;;104.50;58.28;;;;;;;7.45;61.20;100103.34;4779298;29;119603;-81
2021/12/09 10:10:29;;;;;;;108.25;58.03;;;;;;;7.46;61.08;100121.22;4805954;29;119721;-80
2021/12/09 10:13:05;;;;;;;106.63;56.65;;;;;;;7.38;61.30;100107.09;4804718;29;120042;-81
2021/12/09 10:15:39;;;;;;;106.43;59.10;;;;;;;7.49;61.71;100123.06;4807631;29;120363;-81
2021/12/09 10:18:07;;;;;;;110.10;58.72;;;;;;;7.43;61.40;100097.56;4791115;29;123280;-81
2021/12/09 10:20:42;;;;;;;108.50;58.47;;;;;;;7.54;61.81;100111.59;4821300;28;120320;-81
2021/12/09 10:23:24;;;;;;;106.15;58.50;;;;;;;7.51;61.38;100104.28;4777104;29;123010;-80
2021/12/09 10:26:10;;;;;;;109.35;58.00;;;;;;;7.51;61.14;100099.59;4791064;29;122995;-81
2021/12/09 10:28:37;;;;;;;105.30;55.75;;;;;;;7.47;61.53;100092.75;4806237;29;119792;-80
2021/12/09 10:31:24;;;;;;;110.38;58.42;;;;;;;7.49;61.46;100093.06;4780173;29;122406;-82
2021/12/09 10:33:58;;;;;;;103.60;56.20;;;;;;;7.49;61.27;100098.53;4805210;29;120553;-82
2021/12/09 10:36:48;;;;;;;103.63;56.72;;;;;;;7.48;61.47;100091.53;4807502;29;123127;-83
2021/12/09 10:39:26;;;;;;;105.82;57.33;;;;;;;7.42;60.96;100085.88;4804672;29;123384;-81
2021/12/09 10:41:53;;;;;;;101.20;56.17;;;;;;;7.43;61.51;100092.88;4822075;28;120330;-80
2021/12/09 10:44:49;;;;;;;98.22;55.35;;;;;;;7.42;61.28;100099.53;4790874;29;121883;-81
2021/12/09 10:47:25;;;;;;;104.07;56.58;;;;;;;7.36;61.55;100082.22;4774672;29;122785;-82
2021/12/09 10:50:06;;;;;;;103.07;56.58;;;;;;;7.41;61.42;100094.53;4803544;29;120466;-80
2021/12/09 10:52:38;;;;;;;98.20;55.20;;;;;;;7.43;60.90;100092.09;4784470;29;122144;-81
2021/12/09 10:55:32;;;;;;;101.05;55.83;;;;;;;7.43;60.93;100086.66;4791338;29;120138;-81
2021/12/09 10:58:04;;;;;;;104.55;55.80;;;;;;;7.48;60.94;100094.25;4772731;29;120864;-81
2021/12/09 11:01:10;;;;;;;103.13;57.08;;;;;;;7.48;60.68;100097.75;4773410;29;121528;-81
2021/12/09 11:03:50;;;;;;;102.47;55.92;;;;;;;7.49;60.94;100084.88;4795365;29;120409;-81
2021/12/09 11:06:19;;;;;;;97.53;55.50;;;;;;;7.47;61.07;100079.09;4787396;29;120307;-82
2021/12/09 11:08:46;;;;;;;101.95;56.38;;;;;;;7.44;60.93;100074.53;4803423;29;121860;-81
2021/12/09 11:11:28;;;;;;;106.43;56.83;;;;;;;7.46;61.57;100080.31;4773302;29;120201;-81
2021/12/09 11:14:00;;;;;;;104.43;58.10;;;;;;;7.50;61.68;100078.97;4772802;29;122017;-81